< < Back
Terminal Aerodrome Forecast


Current Version              Previous Versions:   1  2  3  4  5  6  7  8  9  

Terminal Aerodrome Forecast

040
FTUS44 KOHX 241121
TAFCSV
TAF
KCSV 241121Z 2412/2512 00000KT P6SM SCT045
      TEMPO 2412/2413 3SM BR
     FM241330 22007KT P6SM SCT040 SCT100 BKN250
     FM250300 00000KT P6SM BKN250=

Latest METAR

326
SAUS70 KWBC 241800 RRA
MTRCSV
METAR KCSV 241753Z AUTO 23005KT 10SM CLR 28/19 A3028 RMK AO2 SLP233
T02830194 10283 20211 58012


USA.gov is the U.S. government's official web portal to all federal, state and local government web resources and services.